sensor_id;sensor_type;location;lat;lon;timestamp;temperature;humidity
47921;DHT22;33686;48.770;9.186;2023-02-18T06:15:44;10.70;99.90
47921;DHT22;33686;48.770;9.186;2023-02-18T06:18:10;10.70;99.90
47921;DHT22;33686;48.770;9.186;2023-02-18T06:20:36;10.70;99.90
47921;DHT22;33686;48.770;9.186;2023-02-18T06:23:01;10.70;99.90
47921;DHT22;33686;48.770;9.186;2023-02-18T06:25:27;10.70;99.90
47921;DHT22;33686;48.770;9.186;2023-02-18T06:27:52;10.70;99.90
47921;DHT22;33686;48.770;9.186;2023-02-18T06:30:18;10.60;99.90
47921;DHT22;33686;48.770;9.186;2023-02-18T06:32:43;10.60;99.90
47921;DHT22;33686;48.770;9.186;2023-02-18T06:35:09;10.70;99.90
47921;DHT22;33686;48.770;9.186;2023-02-18T06:37:34;10.70;99.90
47921;DHT22;33686;48.770;9.186;2023-02-18T06:40:00;10.70;99.90
47921;DHT22;33686;48.770;9.186;2023-02-18T06:42:25;10.80;99.90
47921;DHT22;33686;48.770;9.186;2023-02-18T06:44:51;10.80;99.90
47921;DHT22;33686;48.770;9.186;2023-02-18T06:47:16;10.90;99.90
47921;DHT22;33686;48.770;9.186;2023-02-18T06:49:42;11.00;99.90
47921;DHT22;33686;48.770;9.186;2023-02-18T06:52:07;11.00;99.90
47921;DHT22;33686;48.770;9.186;2023-02-18T06:54:33;11.00;99.90
47921;DHT22;33686;48.770;9.186;2023-02-18T06:56:59;11.10;99.90
47921;DHT22;33686;48.770;9.186;2023-02-18T06:59:24;11.10;99.90
47921;DHT22;33686;48.770;9.186;2023-02-18T07:01:50;11.10;99.90
47921;DHT22;33686;48.770;9.186;2023-02-18T07:04:16;11.20;99.90
47921;DHT22;33686;48.770;9.186;2023-02-18T07:06:41;11.10;99.90
47921;DHT22;33686;48.770;9.186;2023-02-18T07:09:07;11.20;99.90
47921;DHT22;33686;48.770;9.186;2023-02-18T07:11:32;11.20;99.90
47921;DHT22;33686;48.770;9.186;2023-02-18T07:13:58;11.30;99.90
47921;DHT22;33686;48.770;9.186;2023-02-18T07:16:23;11.30;99.90
47921;DHT22;33686;48.770;9.186;2023-02-18T07:18:49;11.30;99.90
47921;DHT22;33686;48.770;9.186;2023-02-18T07:21:14;11.40;99.90
47921;DHT22;33686;48.770;9.186;2023-02-18T07:23:40;11.40;99.90
47921;DHT22;33686;48.770;9.186;2023-02-18T07:26:06;11.40;99.90
47921;DHT22;33686;48.770;9.186;2023-02-18T07:28:32;11.50;99.90
47921;DHT22;33686;48.770;9.186;2023-02-18T07:30:57;11.50;99.90
47921;DHT22;33686;48.770;9.186;2023-02-18T07:33:23;11.50;99.90
47921;DHT22;33686;48.770;9.186;2023-02-18T07:35:53;11.50;99.90
47921;DHT22;33686;48.770;9.186;2023-02-18T07:38:19;11.60;99.90
47921;DHT22;33686;48.770;9.186;2023-02-18T07:40:44;11.60;99.90
47921;DHT22;33686;48.770;9.186;2023-02-18T07:43:10;11.70;99.90
47921;DHT22;33686;48.770;9.186;2023-02-18T07:45:37;11.70;99.90
47921;DHT22;33686;48.770;9.186;2023-02-18T07:48:02;11.70;99.90
47921;DHT22;33686;48.770;9.186;2023-02-18T07:50:28;11.80;99.90
47921;DHT22;33686;48.770;9.186;2023-02-18T07:52:59;11.80;99.90
47921;DHT22;33686;48.770;9.186;2023-02-18T07:55:25;11.90;99.90
47921;DHT22;33686;48.770;9.186;2023-02-18T07:58:11;11.90;99.90
47921;DHT22;33686;48.770;9.186;2023-02-18T08:00:36;12.00;99.90
47921;DHT22;33686;48.770;9.186;2023-02-18T08:03:02;12.10;99.90
47921;DHT22;33686;48.770;9.186;2023-02-18T08:05:27;12.20;99.90
47921;DHT22;33686;48.770;9.186;2023-02-18T08:07:53;12.20;99.90
47921;DHT22;33686;48.770;9.186;2023-02-18T08:10:19;12.30;99.90
47921;DHT22;33686;48.770;9.186;2023-02-18T08:12:44;12.30;99.90
47921;DHT22;33686;48.770;9.186;2023-02-18T08:15:10;12.30;99.90
47921;DHT22;33686;48.770;9.186;2023-02-18T08:17:35;12.30;99.90
47921;DHT22;33686;48.770;9.186;2023-02-18T08:20:01;12.30;99.90
47921;DHT22;33686;48.770;9.186;2023-02-18T08:22:26;12.40;99.90
47921;DHT22;33686;48.770;9.186;2023-02-18T08:24:55;12.40;99.90
47921;DHT22;33686;48.770;9.186;2023-02-18T08:27:20;12.50;99.90
47921;DHT22;33686;48.770;9.186;2023-02-18T08:29:46;12.60;99.90
47921;DHT22;33686;48.770;9.186;2023-02-18T08:32:12;12.70;99.90
47921;DHT22;33686;48.770;9.186;2023-02-18T08:34:38;12.70;99.90
47921;DHT22;33686;48.770;9.186;2023-02-18T08:37:03;12.80;99.90
47921;DHT22;33686;48.770;9.186;2023-02-18T08:39:33;12.70;99.90
47921;DHT22;33686;48.770;9.186;2023-02-18T08:41:58;12.80;99.90
47921;DHT22;33686;48.770;9.186;2023-02-18T08:44:24;13.00;99.90
47921;DHT22;33686;48.770;9.186;2023-02-18T08:46:51;13.00;99.90
47921;DHT22;33686;48.770;9.186;2023-02-18T08:49:16;12.90;99.90
47921;DHT22;33686;48.770;9.186;2023-02-18T08:51:45;12.90;99.90
47921;DHT22;33686;48.770;9.186;2023-02-18T08:54:11;13.00;99.90
47921;DHT22;33686;48.770;9.186;2023-02-18T08:56:36;13.30;99.90
47921;DHT22;33686;48.770;9.186;2023-02-18T08:59:02;13.50;99.90
47921;DHT22;33686;48.770;9.186;2023-02-18T09:01:28;13.50;99.90
47921;DHT22;33686;48.770;9.186;2023-02-18T09:03:53;13.40;99.90
47921;DHT22;33686;48.770;9.186;2023-02-18T09:06:19;13.50;99.90
47921;DHT22;33686;48.770;9.186;2023-02-18T09:08:44;13.60;99.90
47921;DHT22;33686;48.770;9.186;2023-02-18T09:11:10;13.60;99.90
47921;DHT22;33686;48.770;9.186;2023-02-18T09:13:36;13.60;99.90
47921;DHT22;33686;48.770;9.186;2023-02-18T09:16:09;13.60;99.90
47921;DHT22;33686;48.770;9.186;2023-02-18T09:18:35;13.70;99.90
47921;DHT22;33686;48.770;9.186;2023-02-18T09:21:01;13.60;99.90
47921;DHT22;33686;48.770;9.186;2023-02-18T09:23:28;13.80;99.90
47921;DHT22;33686;48.770;9.186;2023-02-18T09:25:53;13.90;99.90
47921;DHT22;33686;48.770;9.186;2023-02-18T09:28:19;14.00;99.90
47921;DHT22;33686;48.770;9.186;2023-02-18T09:30:45;14.10;99.90
47921;DHT22;33686;48.770;9.186;2023-02-18T09:33:10;14.30;99.90
47921;DHT22;33686;48.770;9.186;2023-02-18T09:35:40;14.30;99.90
47921;DHT22;33686;48.770;9.186;2023-02-18T09:38:06;14.20;99.90
47921;DHT22;33686;48.770;9.186;2023-02-18T09:40:32;14.20;99.90
47921;DHT22;33686;48.770;9.186;2023-02-18T09:42:58;14.20;99.90
47921;DHT22;33686;48.770;9.186;2023-02-18T09:45:24;14.20;99.90
47921;DHT22;33686;48.770;9.186;2023-02-18T09:47:50;14.10;99.90
47921;DHT22;33686;48.770;9.186;2023-02-18T09:50:20;14.20;99.90
47921;DHT22;33686;48.770;9.186;2023-02-18T09:52:46;14.10;99.90
47921;DHT22;33686;48.770;9.186;2023-02-18T09:55:20;14.10;99.90
47921;DHT22;33686;48.770;9.186;2023-02-18T09:57:47;14.00;99.90
47921;DHT22;33686;48.770;9.186;2023-02-18T10:02:47;14.00;99.90
47921;DHT22;33686;48.770;9.186;2023-02-18T10:05:14;13.90;99.90
47921;DHT22;33686;48.770;9.186;2023-02-18T10:07:40;13.90;99.90
47921;DHT22;33686;48.770;9.186;2023-02-18T10:10:51;13.80;99.90
47921;DHT22;33686;48.770;9.186;2023-02-18T10:12:52;13.90;99.90
47921;DHT22;33686;48.770;9.186;2023-02-18T10:15:21;13.90;99.90
47921;DHT22;33686;48.770;9.186;2023-02-18T10:17:48;14.00;99.90
47921;DHT22;33686;48.770;9.186;2023-02-18T10:20:16;14.00;99.90
47921;DHT22;33686;48.770;9.186;2023-02-18T10:22:44;13.90;99.90
47921;DHT22;33686;48.770;9.186;2023-02-18T10:25:11;13.90;99.90
47921;DHT22;33686;48.770;9.186;2023-02-18T10:27:41;14.10;99.90
47921;DHT22;33686;48.770;9.186;2023-02-18T10:32:55;14.10;99.90
47921;DHT22;33686;48.770;9.186;2023-02-18T10:37:53;14.10;99.90
47921;DHT22;33686;48.770;9.186;2023-02-18T10:42:53;14.10;99.90
47921;DHT22;33686;48.770;9.186;2023-02-18T10:45:27;14.20;99.90
47921;DHT22;33686;48.770;9.186;2023-02-18T10:48:14;14.20;99.90
47921;DHT22;33686;48.770;9.186;2023-02-18T10:50:43;14.20;99.90
47921;DHT22;33686;48.770;9.186;2023-02-18T10:53:13;14.20;99.90
47921;DHT22;33686;48.770;9.186;2023-02-18T10:55:44;14.20;99.90
47921;DHT22;33686;48.770;9.186;2023-02-18T11:00:54;14.20;99.90
47921;DHT22;33686;48.770;9.186;2023-02-18T11:03:24;14.30;99.90
47921;DHT22;33686;48.770;9.186;2023-02-18T11:05:51;14.30;99.90
47921;DHT22;33686;48.770;9.186;2023-02-18T11:08:18;14.40;99.90
47921;DHT22;33686;48.770;9.186;2023-02-18T11:10:45;14.40;99.90
47921;DHT22;33686;48.770;9.186;2023-02-18T11:13:16;14.40;99.90
47921;DHT22;33686;48.770;9.186;2023-02-18T11:15:53;14.30;99.90
47921;DHT22;33686;48.770;9.186;2023-02-18T11:20:54;14.30;99.90
47921;DHT22;33686;48.770;9.186;2023-02-18T11:23:20;14.30;99.90
47921;DHT22;33686;48.770;9.186;2023-02-18T11:25:56;14.50;99.90
47921;DHT22;33686;48.770;9.186;2023-02-18T11:28:27;14.50;99.90
47921;DHT22;33686;48.770;9.186;2023-02-18T11:30:58;14.50;99.90
47921;DHT22;33686;48.770;9.186;2023-02-18T11:33:58;14.50;99.90
47921;DHT22;33686;48.770;9.186;2023-02-18T11:36:32;14.50;99.90
47921;DHT22;33686;48.770;9.186;2023-02-18T11:39:03;14.50;99.90
47921;DHT22;33686;48.770;9.186;2023-02-18T11:41:37;14.50;99.90
47921;DHT22;33686;48.770;9.186;2023-02-18T11:44:05;14.50;99.90
47921;DHT22;33686;48.770;9.186;2023-02-18T11:46:31;14.50;99.90
47921;DHT22;33686;48.770;9.186;2023-02-18T11:49:10;14.50;99.90
47921;DHT22;33686;48.770;9.186;2023-02-18T11:51:36;14.50;99.90
47921;DHT22;33686;48.770;9.186;2023-02-18T11:54:05;14.60;99.90
47921;DHT22;33686;48.770;9.186;2023-02-18T11:56:34;14.70;99.90
47921;DHT22;33686;48.770;9.186;2023-02-18T11:59:00;14.60;99.90
47921;DHT22;33686;48.770;9.186;2023-02-18T12:04:00;14.70;99.90
47921;DHT22;33686;48.770;9.186;2023-02-18T12:06:34;14.70;99.90
47921;DHT22;33686;48.770;9.186;2023-02-18T12:09:14;14.70;99.90
47921;DHT22;33686;48.770;9.186;2023-02-18T12:11:43;14.70;99.90
47921;DHT22;33686;48.770;9.186;2023-02-18T12:14:13;14.80;99.90
47921;DHT22;33686;48.770;9.186;2023-02-18T12:21:52;14.70;99.90
47921;DHT22;33686;48.770;9.186;2023-02-18T12:35:11;15.10;99.90
47921;DHT22;33686;48.770;9.186;2023-02-18T12:37:50;15.10;99.90
47921;DHT22;33686;48.770;9.186;2023-02-18T12:40:43;15.00;99.90
47921;DHT22;33686;48.770;9.186;2023-02-18T13:02:00;15.10;99.90
47921;DHT22;33686;48.770;9.186;2023-02-18T13:04:46;15.10;99.90
47921;DHT22;33686;48.770;9.186;2023-02-18T13:12:30;14.90;99.90
47921;DHT22;33686;48.770;9.186;2023-02-18T13:15:15;14.80;99.90
47921;DHT22;33686;48.770;9.186;2023-02-18T13:17:42;14.90;99.90
47921;DHT22;33686;48.770;9.186;2023-02-18T13:20:20;14.70;99.90
47921;DHT22;33686;48.770;9.186;2023-02-18T13:22:46;14.70;99.90
47921;DHT22;33686;48.770;9.186;2023-02-18T13:25:15;14.60;99.90
47921;DHT22;33686;48.770;9.186;2023-02-18T13:27:51;14.50;99.90
47921;DHT22;33686;48.770;9.186;2023-02-18T13:35:22;14.40;99.90
47921;DHT22;33686;48.770;9.186;2023-02-18T13:37:54;14.40;99.90
47921;DHT22;33686;48.770;9.186;2023-02-18T13:40:26;14.30;99.90
47921;DHT22;33686;48.770;9.186;2023-02-18T13:42:54;14.40;99.90
47921;DHT22;33686;48.770;9.186;2023-02-18T13:45:27;14.50;99.90
47921;DHT22;33686;48.770;9.186;2023-02-18T13:47:53;14.40;99.90
47921;DHT22;33686;48.770;9.186;2023-02-18T13:55:17;14.60;99.90
47921;DHT22;33686;48.770;9.186;2023-02-18T13:57:45;14.60;99.90
47921;DHT22;33686;48.770;9.186;2023-02-18T14:00:19;14.60;99.90
47921;DHT22;33686;48.770;9.186;2023-02-18T14:02:59;14.70;99.90
47921;DHT22;33686;48.770;9.186;2023-02-18T14:05:36;14.80;99.90
47921;DHT22;33686;48.770;9.186;2023-02-18T14:08:10;14.70;99.90
47921;DHT22;33686;48.770;9.186;2023-02-18T14:10:37;14.70;99.90
47921;DHT22;33686;48.770;9.186;2023-02-18T14:15:51;14.60;99.90
47921;DHT22;33686;48.770;9.186;2023-02-18T14:18:25;14.60;99.90
47921;DHT22;33686;48.770;9.186;2023-02-18T14:20:51;14.60;99.90
47921;DHT22;33686;48.770;9.186;2023-02-18T14:25:50;14.50;99.90
47921;DHT22;33686;48.770;9.186;2023-02-18T14:28:39;14.50;99.90
47921;DHT22;33686;48.770;9.186;2023-02-18T14:33:31;14.50;99.90
47921;DHT22;33686;48.770;9.186;2023-02-18T14:36:08;14.50;99.90
47921;DHT22;33686;48.770;9.186;2023-02-18T14:38:41;14.50;99.90
47921;DHT22;33686;48.770;9.186;2023-02-18T14:41:13;14.50;99.90
47921;DHT22;33686;48.770;9.186;2023-02-18T14:46:16;14.50;99.90
47921;DHT22;33686;48.770;9.186;2023-02-18T14:51:16;14.50;99.90
47921;DHT22;33686;48.770;9.186;2023-02-18T14:53:44;14.50;99.90
47921;DHT22;33686;48.770;9.186;2023-02-18T14:56:12;14.40;99.90
47921;DHT22;33686;48.770;9.186;2023-02-18T14:58:40;14.50;99.90
47921;DHT22;33686;48.770;9.186;2023-02-18T15:01:28;14.50;99.90
47921;DHT22;33686;48.770;9.186;2023-02-18T15:03:52;14.50;99.90
47921;DHT22;33686;48.770;9.186;2023-02-18T15:06:29;14.50;99.90
47921;DHT22;33686;48.770;9.186;2023-02-18T15:08:55;14.40;99.90
47921;DHT22;33686;48.770;9.186;2023-02-18T15:11:22;14.30;99.90
47921;DHT22;33686;48.770;9.186;2023-02-18T15:13:48;14.40;99.90
47921;DHT22;33686;48.770;9.186;2023-02-18T15:16:47;14.30;99.90
47921;DHT22;33686;48.770;9.186;2023-02-18T15:19:06;14.40;99.90
47921;DHT22;33686;48.770;9.186;2023-02-18T15:21:38;14.30;99.90
47921;DHT22;33686;48.770;9.186;2023-02-18T15:26:29;14.20;99.90
47921;DHT22;33686;48.770;9.186;2023-02-18T15:29:02;14.10;99.90
47921;DHT22;33686;48.770;9.186;2023-02-18T15:31:29;14.10;99.90
47921;DHT22;33686;48.770;9.186;2023-02-18T15:33:55;14.20;99.90
47921;DHT22;33686;48.770;9.186;2023-02-18T15:36:21;14.10;99.90
47921;DHT22;33686;48.770;9.186;2023-02-18T15:38:46;14.10;99.90
47921;DHT22;33686;48.770;9.186;2023-02-18T15:41:15;14.10;99.90
47921;DHT22;33686;48.770;9.186;2023-02-18T15:43:55;14.00;99.90
47921;DHT22;33686;48.770;9.186;2023-02-18T15:46:22;14.00;99.90
47921;DHT22;33686;48.770;9.186;2023-02-18T15:48:50;14.00;99.90
47921;DHT22;33686;48.770;9.186;2023-02-18T15:51:18;13.90;99.90
47921;DHT22;33686;48.770;9.186;2023-02-18T15:53:46;14.00;99.90
47921;DHT22;33686;48.770;9.186;2023-02-18T15:56:19;13.90;99.90
47921;DHT22;33686;48.770;9.186;2023-02-18T15:58:45;13.90;99.90
47921;DHT22;33686;48.770;9.186;2023-02-18T16:01:24;13.80;99.90
47921;DHT22;33686;48.770;9.186;2023-02-18T16:03:50;13.90;99.90
47921;DHT22;33686;48.770;9.186;2023-02-18T16:06:22;13.80;99.90
47921;DHT22;33686;48.770;9.186;2023-02-18T16:08:57;13.80;99.90
47921;DHT22;33686;48.770;9.186;2023-02-18T16:11:23;13.80;99.90
47921;DHT22;33686;48.770;9.186;2023-02-18T16:13:49;13.70;99.90
47921;DHT22;33686;48.770;9.186;2023-02-18T16:16:22;13.70;99.90
47921;DHT22;33686;48.770;9.186;2023-02-18T16:18:49;13.60;99.90
47921;DHT22;33686;48.770;9.186;2023-02-18T16:23:45;13.60;99.90
47921;DHT22;33686;48.770;9.186;2023-02-18T16:26:32;13.60;99.90
47921;DHT22;33686;48.770;9.186;2023-02-18T16:29:19;13.50;99.90
47921;DHT22;33686;48.770;9.186;2023-02-18T16:31:45;13.50;99.90
47921;DHT22;33686;48.770;9.186;2023-02-18T16:34:11;13.40;99.90
47921;DHT22;33686;48.770;9.186;2023-02-18T16:36:36;13.40;99.90
47921;DHT22;33686;48.770;9.186;2023-02-18T16:39:22;13.30;99.90
47921;DHT22;33686;48.770;9.186;2023-02-18T16:41:47;13.30;99.90
47921;DHT22;33686;48.770;9.186;2023-02-18T16:44:13;13.30;99.90
47921;DHT22;33686;48.770;9.186;2023-02-18T16:46:39;13.20;99.90
47921;DHT22;33686;48.770;9.186;2023-02-18T16:49:05;13.20;99.90
47921;DHT22;33686;48.770;9.186;2023-02-18T16:51:31;13.20;99.90
47921;DHT22;33686;48.770;9.186;2023-02-18T16:53:58;13.20;99.90
47921;DHT22;33686;48.770;9.186;2023-02-18T16:56:25;13.20;99.90
47921;DHT22;33686;48.770;9.186;2023-02-18T16:58:51;13.20;99.90
47921;DHT22;33686;48.770;9.186;2023-02-18T17:01:24;13.20;99.90
47921;DHT22;33686;48.770;9.186;2023-02-18T17:03:50;13.20;99.90
47921;DHT22;33686;48.770;9.186;2023-02-18T17:06:16;13.20;99.90
47921;DHT22;33686;48.770;9.186;2023-02-18T17:08:42;13.20;99.90
47921;DHT22;33686;48.770;9.186;2023-02-18T17:11:08;13.20;99.90
47921;DHT22;33686;48.770;9.186;2023-02-18T17:13:39;13.10;99.90
47921;DHT22;33686;48.770;9.186;2023-02-18T17:16:04;13.10;99.90
47921;DHT22;33686;48.770;9.186;2023-02-18T17:18:30;13.10;99.90
47921;DHT22;33686;48.770;9.186;2023-02-18T17:20:56;13.20;99.90
47921;DHT22;33686;48.770;9.186;2023-02-18T17:23:22;13.10;99.90
47921;DHT22;33686;48.770;9.186;2023-02-18T17:25:47;13.10;99.90
47921;DHT22;33686;48.770;9.186;2023-02-18T17:28:14;13.20;99.90
47921;DHT22;33686;48.770;9.186;2023-02-18T17:30:44;13.10;99.90
47921;DHT22;33686;48.770;9.186;2023-02-18T17:33:14;13.10;99.90
47921;DHT22;33686;48.770;9.186;2023-02-18T17:35:40;13.10;99.90
47921;DHT22;33686;48.770;9.186;2023-02-18T17:38:09;13.00;99.90
47921;DHT22;33686;48.770;9.186;2023-02-18T17:40:35;13.10;99.90
47921;DHT22;33686;48.770;9.186;2023-02-18T17:43:01;13.10;99.90
47921;DHT22;33686;48.770;9.186;2023-02-18T17:45:27;13.00;99.90
47921;DHT22;33686;48.770;9.186;2023-02-18T17:47:54;13.00;99.90
47921;DHT22;33686;48.770;9.186;2023-02-18T17:50:20;13.00;99.90
47921;DHT22;33686;48.770;9.186;2023-02-18T17:52:45;12.90;99.90
47921;DHT22;33686;48.770;9.186;2023-02-18T17:55:15;12.90;99.90
47921;DHT22;33686;48.770;9.186;2023-02-18T17:57:41;12.90;99.90
47921;DHT22;33686;48.770;9.186;2023-02-18T18:00:06;12.90;99.90
47921;DHT22;33686;48.770;9.186;2023-02-18T18:02:33;12.80;99.90
47921;DHT22;33686;48.770;9.186;2023-02-18T18:04:58;12.80;99.90
47921;DHT22;33686;48.770;9.186;2023-02-18T18:07:24;12.80;99.90
47921;DHT22;33686;48.770;9.186;2023-02-18T18:09:49;12.80;99.90
47921;DHT22;33686;48.770;9.186;2023-02-18T18:12:15;12.80;99.90
47921;DHT22;33686;48.770;9.186;2023-02-18T18:14:41;12.80;99.90
47921;DHT22;33686;48.770;9.186;2023-02-18T18:17:10;12.80;99.90
47921;DHT22;33686;48.770;9.186;2023-02-18T18:19:36;12.70;99.90
47921;DHT22;33686;48.770;9.186;2023-02-18T18:22:03;12.80;99.90
47921;DHT22;33686;48.770;9.186;2023-02-18T18:24:28;12.70;99.90
47921;DHT22;33686;48.770;9.186;2023-02-18T18:26:54;12.80;99.90
47921;DHT22;33686;48.770;9.186;2023-02-18T18:29:20;12.70;99.90
47921;DHT22;33686;48.770;9.186;2023-02-18T18:31:45;12.70;99.90
47921;DHT22;33686;48.770;9.186;2023-02-18T18:34:11;12.70;99.90
47921;DHT22;33686;48.770;9.186;2023-02-18T18:36:39;12.70;99.90
47921;DHT22;33686;48.770;9.186;2023-02-18T18:39:04;12.70;99.90
47921;DHT22;33686;48.770;9.186;2023-02-18T18:41:33;12.70;99.90
47921;DHT22;33686;48.770;9.186;2023-02-18T18:43:58;12.70;99.90
47921;DHT22;33686;48.770;9.186;2023-02-18T18:46:24;12.70;99.90
47921;DHT22;33686;48.770;9.186;2023-02-18T18:48:49;12.70;99.90
47921;DHT22;33686;48.770;9.186;2023-02-18T18:51:16;12.60;99.90
47921;DHT22;33686;48.770;9.186;2023-02-18T18:53:43;12.60;99.90
47921;DHT22;33686;48.770;9.186;2023-02-18T18:56:09;12.60;99.90
47921;DHT22;33686;48.770;9.186;2023-02-18T18:58:34;12.60;99.90
47921;DHT22;33686;48.770;9.186;2023-02-18T19:01:00;12.60;99.90
47921;DHT22;33686;48.770;9.186;2023-02-18T19:03:27;12.60;99.90
47921;DHT22;33686;48.770;9.186;2023-02-18T19:05:53;12.60;99.90
47921;DHT22;33686;48.770;9.186;2023-02-18T19:08:18;12.50;99.90
47921;DHT22;33686;48.770;9.186;2023-02-18T19:10:48;12.60;99.90
47921;DHT22;33686;48.770;9.186;2023-02-18T19:15:43;12.50;99.90
47921;DHT22;33686;48.770;9.186;2023-02-18T19:18:12;12.50;99.90
47921;DHT22;33686;48.770;9.186;2023-02-18T19:20:38;12.50;99.90
47921;DHT22;33686;48.770;9.186;2023-02-18T19:23:04;12.50;99.90
47921;DHT22;33686;48.770;9.186;2023-02-18T19:25:30;12.50;99.90
47921;DHT22;33686;48.770;9.186;2023-02-18T19:27:55;12.40;99.90
47921;DHT22;33686;48.770;9.186;2023-02-18T19:30:23;12.40;99.90
47921;DHT22;33686;48.770;9.186;2023-02-18T19:32:53;12.40;99.90
47921;DHT22;33686;48.770;9.186;2023-02-18T19:35:19;12.40;99.90
47921;DHT22;33686;48.770;9.186;2023-02-18T19:37:45;12.40;99.90
47921;DHT22;33686;48.770;9.186;2023-02-18T19:40:12;12.40;99.90
47921;DHT22;33686;48.770;9.186;2023-02-18T19:42:38;12.30;99.90
47921;DHT22;33686;48.770;9.186;2023-02-18T19:45:04;12.30;99.90
47921;DHT22;33686;48.770;9.186;2023-02-18T19:47:30;12.20;99.90
47921;DHT22;33686;48.770;9.186;2023-02-18T19:49:56;12.20;99.90
47921;DHT22;33686;48.770;9.186;2023-02-18T19:52:22;12.20;99.90
47921;DHT22;33686;48.770;9.186;2023-02-18T19:54:48;12.20;99.90
47921;DHT22;33686;48.770;9.186;2023-02-18T19:57:13;12.20;99.90
47921;DHT22;33686;48.770;9.186;2023-02-18T19:59:39;12.10;99.90
47921;DHT22;33686;48.770;9.186;2023-02-18T20:02:05;12.10;99.90
47921;DHT22;33686;48.770;9.186;2023-02-18T20:04:31;12.10;99.90
47921;DHT22;33686;48.770;9.186;2023-02-18T20:06:56;12.10;99.90
47921;DHT22;33686;48.770;9.186;2023-02-18T20:09:22;12.00;99.90
47921;DHT22;33686;48.770;9.186;2023-02-18T20:11:47;12.00;99.90
47921;DHT22;33686;48.770;9.186;2023-02-18T20:14:13;12.00;99.90
47921;DHT22;33686;48.770;9.186;2023-02-18T20:16:39;11.80;99.90
47921;DHT22;33686;48.770;9.186;2023-02-18T20:19:04;11.60;99.90
47921;DHT22;33686;48.770;9.186;2023-02-18T20:21:30;11.60;99.90
47921;DHT22;33686;48.770;9.186;2023-02-18T20:23:56;11.60;99.90
47921;DHT22;33686;48.770;9.186;2023-02-18T20:26:21;11.60;99.90
47921;DHT22;33686;48.770;9.186;2023-02-18T20:28:47;11.60;99.90
47921;DHT22;33686;48.770;9.186;2023-02-18T20:31:13;11.50;99.90
47921;DHT22;33686;48.770;9.186;2023-02-18T20:33:39;11.40;99.90
47921;DHT22;33686;48.770;9.186;2023-02-18T20:36:06;11.30;99.90
47921;DHT22;33686;48.770;9.186;2023-02-18T20:38:33;11.20;99.90
47921;DHT22;33686;48.770;9.186;2023-02-18T20:41:05;11.20;99.90
47921;DHT22;33686;48.770;9.186;2023-02-18T20:43:31;11.30;99.90
47921;DHT22;33686;48.770;9.186;2023-02-18T20:46:03;11.20;99.90
47921;DHT22;33686;48.770;9.186;2023-02-18T20:48:29;11.20;99.90
47921;DHT22;33686;48.770;9.186;2023-02-18T20:50:55;11.10;99.90
47921;DHT22;33686;48.770;9.186;2023-02-18T20:53:20;11.20;99.90
47921;DHT22;33686;48.770;9.186;2023-02-18T20:55:46;11.10;99.90
47921;DHT22;33686;48.770;9.186;2023-02-18T20:58:12;11.10;99.90
47921;DHT22;33686;48.770;9.186;2023-02-18T21:00:38;11.10;99.90
47921;DHT22;33686;48.770;9.186;2023-02-18T21:03:03;11.10;99.90
47921;DHT22;33686;48.770;9.186;2023-02-18T21:05:29;11.10;99.90
47921;DHT22;33686;48.770;9.186;2023-02-18T21:07:54;11.10;99.90
47921;DHT22;33686;48.770;9.186;2023-02-18T21:10:20;11.10;99.90
47921;DHT22;33686;48.770;9.186;2023-02-18T21:12:46;11.20;99.90
47921;DHT22;33686;48.770;9.186;2023-02-18T21:15:11;11.20;99.90
47921;DHT22;33686;48.770;9.186;2023-02-18T21:17:37;11.20;99.90
47921;DHT22;33686;48.770;9.186;2023-02-18T21:20:03;11.10;99.90
47921;DHT22;33686;48.770;9.186;2023-02-18T21:22:28;11.10;99.90
47921;DHT22;33686;48.770;9.186;2023-02-18T21:24:54;11.20;99.90
47921;DHT22;33686;48.770;9.186;2023-02-18T21:27:20;11.10;99.90
47921;DHT22;33686;48.770;9.186;2023-02-18T21:29:45;11.10;99.90
47921;DHT22;33686;48.770;9.186;2023-02-18T21:32:11;11.10;99.90
47921;DHT22;33686;48.770;9.186;2023-02-18T21:34:36;11.10;99.90
47921;DHT22;33686;48.770;9.186;2023-02-18T21:37:02;11.10;99.90
47921;DHT22;33686;48.770;9.186;2023-02-18T21:39:28;11.10;99.90
47921;DHT22;33686;48.770;9.186;2023-02-18T21:41:54;11.10;99.90
47921;DHT22;33686;48.770;9.186;2023-02-18T21:44:21;11.10;99.90
47921;DHT22;33686;48.770;9.186;2023-02-18T21:46:46;11.10;99.90
47921;DHT22;33686;48.770;9.186;2023-02-18T21:49:12;11.10;99.90
47921;DHT22;33686;48.770;9.186;2023-02-18T21:54:24;11.10;99.90
47921;DHT22;33686;48.770;9.186;2023-02-18T21:56:51;11.10;99.90
47921;DHT22;33686;48.770;9.186;2023-02-18T21:59:17;11.00;99.90
47921;DHT22;33686;48.770;9.186;2023-02-18T22:01:43;11.00;99.90
47921;DHT22;33686;48.770;9.186;2023-02-18T22:04:09;11.00;99.90
47921;DHT22;33686;48.770;9.186;2023-02-18T22:06:34;11.10;99.90
47921;DHT22;33686;48.770;9.186;2023-02-18T22:09:00;11.10;99.90
47921;DHT22;33686;48.770;9.186;2023-02-18T22:11:26;11.00;99.90
47921;DHT22;33686;48.770;9.186;2023-02-18T22:13:52;11.00;99.90
47921;DHT22;33686;48.770;9.186;2023-02-18T22:16:18;11.00;99.90
47921;DHT22;33686;48.770;9.186;2023-02-18T22:18:43;11.00;99.90
47921;DHT22;33686;48.770;9.186;2023-02-18T22:21:09;11.00;99.90
47921;DHT22;33686;48.770;9.186;2023-02-18T22:23:34;11.00;99.90
47921;DHT22;33686;48.770;9.186;2023-02-18T22:26:04;11.00;99.90
47921;DHT22;33686;48.770;9.186;2023-02-18T22:28:29;10.90;99.90
47921;DHT22;33686;48.770;9.186;2023-02-18T22:30:55;11.00;99.90
47921;DHT22;33686;48.770;9.186;2023-02-18T22:33:21;11.00;99.90
47921;DHT22;33686;48.770;9.186;2023-02-18T22:35:46;11.00;99.90
47921;DHT22;33686;48.770;9.186;2023-02-18T22:38:12;10.90;99.90
47921;DHT22;33686;48.770;9.186;2023-02-18T22:40:37;10.70;99.90
47921;DHT22;33686;48.770;9.186;2023-02-18T22:43:03;10.60;99.90
47921;DHT22;33686;48.770;9.186;2023-02-18T22:45:29;10.50;99.90
47921;DHT22;33686;48.770;9.186;2023-02-18T22:47:54;10.40;99.90
47921;DHT22;33686;48.770;9.186;2023-02-18T22:50:20;10.40;99.90
47921;DHT22;33686;48.770;9.186;2023-02-18T22:52:45;10.30;99.90
47921;DHT22;33686;48.770;9.186;2023-02-18T22:55:11;10.20;99.90
47921;DHT22;33686;48.770;9.186;2023-02-18T22:57:36;10.20;99.90
47921;DHT22;33686;48.770;9.186;2023-02-18T23:00:04;10.20;99.90
